Time;durP1;ratioP1;P1;durP2;ratioP2;P2;SDS_P1;SDS_P2;PMS_P1;PMS_P2;Temp;Humidity;BMP_temperature;BMP_pressure;BME280_temperature;BME280_humidity;BME280_pressure;Samples;Min_cycle;Max_cycle;Signal;HPM_P1;HPM_P2
2021/08/06 00:00:30;;;;;;;2.90;1.70;;;16.70;88.90;;;;;;6247648;23;20012;-77
2021/08/06 00:02:58;;;;;;;2.83;1.30;;;16.60;89.00;;;;;;6252731;22;20271;-76
2021/08/06 00:05:26;;;;;;;2.22;1.02;;;16.70;89.20;;;;;;6253625;22;20024;-76
2021/08/06 00:07:54;;;;;;;2.97;1.55;;;16.70;89.60;;;;;;6253864;22;20024;-76
2021/08/06 00:10:27;;;;;;;2.20;1.23;;;16.60;89.30;;;;;;6254020;23;20012;-76
2021/08/06 00:12:55;;;;;;;3.63;1.23;;;16.60;89.50;;;;;;6252307;22;20024;-76
2021/08/06 00:15:22;;;;;;;2.20;1.55;;;16.70;89.60;;;;;;6253158;22;20031;-76
2021/08/06 00:17:50;;;;;;;3.25;1.80;;;16.70;89.60;;;;;;6252200;23;20031;-76
2021/08/06 00:20:19;;;;;;;3.72;1.83;;;16.70;89.70;;;;;;6250843;22;20217;-77
2021/08/06 00:22:46;;;;;;;5.05;2.17;;;16.70;90.20;;;;;;6252307;23;20028;-77
2021/08/06 00:25:13;;;;;;;3.63;1.88;;;16.60;90.40;;;;;;6250659;22;20510;-76
2021/08/06 00:27:41;;;;;;;4.07;1.80;;;16.60;90.70;;;;;;6249756;22;20016;-77
2021/08/06 00:30:09;;;;;;;3.80;1.80;;;16.60;91.20;;;;;;6251410;22;20031;-76
2021/08/06 00:32:36;;;;;;;2.33;1.40;;;16.60;91.20;;;;;;6251053;22;20016;-76
2021/08/06 00:35:10;;;;;;;3.38;1.60;;;16.60;91.10;;;;;;6250151;23;20058;-76
2021/08/06 00:37:39;;;;;;;3.75;2.08;;;16.50;91.00;;;;;;6249530;23;20016;-77
2021/08/06 00:40:09;;;;;;;3.33;1.70;;;16.50;91.00;;;;;;6275464;22;20016;-76
2021/08/06 00:42:40;;;;;;;7.68;2.63;;;16.50;91.20;;;;;;6250234;23;20027;-77
2021/08/06 00:45:11;;;;;;;5.55;1.98;;;16.50;91.40;;;;;;6248803;23;20032;-77
2021/08/06 00:47:39;;;;;;;4.00;2.17;;;16.50;91.50;;;;;;6251621;23;20040;-77
2021/08/06 00:50:09;;;;;;;5.55;2.00;;;16.50;91.60;;;;;;6249954;23;20044;-77
2021/08/06 00:52:36;;;;;;;6.35;2.08;;;16.40;91.40;;;;;;6252453;22;20016;-77
2021/08/06 00:55:06;;;;;;;6.72;2.35;;;16.40;91.60;;;;;;6249793;23;20035;-77
2021/08/06 00:57:37;;;;;;;6.80;1.83;;;16.60;91.30;;;;;;6251405;23;20235;-77
2021/08/06 01:00:15;;;;;;;4.93;1.73;;;16.60;91.20;;;;;;6243501;23;20024;-77
2021/08/06 01:02:49;;;;;;;5.63;1.92;;;16.60;90.70;;;;;;6249370;23;20027;-77
2021/08/06 01:05:20;;;;;;;6.20;1.88;;;16.70;90.20;;;;;;6251023;23;20026;-76
2021/08/06 01:07:54;;;;;;;5.70;2.17;;;16.70;90.10;;;;;;6250826;23;20027;-76
2021/08/06 01:10:28;;;;;;;4.03;1.92;;;16.50;90.40;;;;;;6251864;23;20067;-77
2021/08/06 01:12:59;;;;;;;5.68;2.00;;;16.60;90.50;;;;;;6251384;23;20032;-76
2021/08/06 01:15:52;;;;;;;2.53;1.47;;;16.50;90.70;;;;;;2396421;23;10150016;-76
2021/08/06 01:18:21;;;;;;;4.10;1.83;;;16.50;90.80;;;;;;4958073;23;10001072;-77
2021/08/06 01:20:55;;;;;;;4.07;2.03;;;16.50;91.10;;;;;;6250310;23;20319;-77
2021/08/06 01:23:28;;;;;;;3.55;2.10;;;16.50;91.30;;;;;;6250308;23;20279;-76
2021/08/06 01:25:59;;;;;;;3.58;1.98;;;16.60;91.10;;;;;;6249661;22;20035;-77
2021/08/06 01:28:54;;;;;;;6.75;2.75;;;16.60;91.30;;;;;;6252244;22;20056;-76
2021/08/06 01:31:25;;;;;;;;;;;16.60;91.20;;;;;;6250657;23;20039;-76
2021/08/06 01:33:55;;;;;;;5.40;2.50;;;16.60;91.30;;;;;;6251723;23;19966;-77
2021/08/06 01:36:28;;;;;;;6.55;2.78;;;16.60;91.40;;;;;;6250990;23;20400;-77
2021/08/06 01:38:58;;;;;;;7.03;2.40;;;16.50;91.20;;;;;;6250252;23;20024;-77
2021/08/06 01:41:45;;;;;;;4.93;2.45;;;16.60;91.30;;;;;;6250883;23;20032;-77
2021/08/06 01:44:18;;;;;;;;;;;16.50;91.30;;;;;;6251601;23;20389;-76
2021/08/06 01:46:51;;;;;;;5.22;2.30;;;16.60;91.10;;;;;;6252770;22;20119;-76
2021/08/06 01:49:26;;;;;;;4.20;2.38;;;16.60;91.20;;;;;;6250842;23;20140;-76
2021/08/06 01:51:59;;;;;;;5.65;2.28;;;16.60;91.10;;;;;;6250177;23;20020;-75
2021/08/06 01:54:39;;;;;;;4.45;2.28;;;16.60;90.70;;;;;;6251909;23;20051;-76
2021/08/06 01:57:09;;;;;;;6.28;2.95;;;16.60;90.70;;;;;;6252113;23;20389;-76
2021/08/06 01:59:40;;;;;;;4.80;2.42;;;16.60;90.40;;;;;;6252698;23;20024;-76
2021/08/06 02:02:09;;;;;;;5.00;2.10;;;16.60;90.30;;;;;;6245793;23;20028;-76
2021/08/06 02:04:37;;;;;;;5.85;2.53;;;16.60;90.30;;;;;;6249789;23;20009;-76
2021/08/06 02:07:16;;;;;;;4.50;2.28;;;16.60;90.40;;;;;;6249529;23;20031;-76
2021/08/06 02:09:46;;;;;;;3.97;2.40;;;16.50;90.70;;;;;;6249644;23;20030;-76
2021/08/06 02:12:18;;;;;;;4.18;2.40;;;16.50;90.90;;;;;;6274502;22;20095;-76
2021/08/06 02:15:00;;;;;;;7.05;2.60;;;16.40;91.00;;;;;;6250001;23;20034;-76
2021/08/06 02:17:36;;;;;;;4.50;2.38;;;16.30;91.10;;;;;;6251144;23;20028;-76
2021/08/06 02:20:14;;;;;;;5.28;2.83;;;16.10;91.40;;;;;;6251525;23;20031;-76
2021/08/06 02:22:48;;;;;;;4.45;2.20;;;16.00;91.80;;;;;;6251670;23;20020;-76
2021/08/06 02:25:23;;;;;;;4.97;2.45;;;16.00;91.90;;;;;;6276892;22;20043;-75
2021/08/06 02:27:55;;;;;;;5.38;2.70;;;15.90;92.30;;;;;;6247840;22;20031;-76
2021/08/06 02:30:26;;;;;;;5.20;2.35;;;16.00;92.60;;;;;;6251881;23;20071;-76
2021/08/06 02:32:57;;;;;;;4.15;1.92;;;16.00;92.50;;;;;;6251289;23;20028;-76
2021/08/06 02:35:25;;;;;;;3.60;1.60;;;15.90;92.30;;;;;;6252539;23;20031;-76
2021/08/06 02:37:53;;;;;;;4.78;1.85;;;15.90;92.20;;;;;;6251545;23;20012;-76
2021/08/06 02:40:20;;;;;;;3.15;1.55;;;15.90;92.10;;;;;;6252071;23;20071;-76
2021/08/06 02:42:48;;;;;;;3.50;2.05;;;15.80;91.90;;;;;;6249902;23;20095;-76
2021/08/06 02:45:19;;;;;;;3.20;1.75;;;15.80;91.90;;;;;;6252456;23;20356;-76
2021/08/06 02:47:46;;;;;;;3.55;1.40;;;15.70;91.90;;;;;;6255441;23;20271;-76
2021/08/06 02:50:14;;;;;;;3.80;1.45;;;15.60;92.40;;;;;;6255241;22;20012;-76
2021/08/06 02:52:41;;;;;;;3.72;1.45;;;15.60;92.20;;;;;;6254012;23;20023;-76
2021/08/06 02:55:10;;;;;;;3.30;1.38;;;15.60;92.40;;;;;;6254079;23;20085;-76
2021/08/06 02:57:38;;;;;;;2.15;1.13;;;15.60;92.40;;;;;;6252063;23;20023;-76
2021/08/06 03:00:07;;;;;;;4.78;1.48;;;15.50;92.40;;;;;;6249235;23;20051;-76
2021/08/06 03:02:38;;;;;;;4.68;1.42;;;15.50;92.50;;;;;;6252928;23;20034;-76
2021/08/06 03:05:06;;;;;;;2.38;1.50;;;15.50;92.40;;;;;;6254112;23;20054;-76
2021/08/06 03:07:34;;;;;;;5.18;1.42;;;15.50;92.40;;;;;;6252523;23;20024;-76
2021/08/06 03:10:01;;;;;;;3.55;1.70;;;15.50;92.70;;;;;;6250610;23;20028;-76
2021/08/06 03:12:35;;;;;;;5.63;1.70;;;15.50;92.60;;;;;;6251158;23;20024;-77
2021/08/06 03:15:02;;;;;;;4.10;1.92;;;15.50;92.50;;;;;;6252162;22;20091;-76
2021/08/06 03:17:30;;;;;;;3.38;1.60;;;15.50;92.70;;;;;;6252720;23;20303;-76
2021/08/06 03:19:58;;;;;;;5.03;1.88;;;15.40;92.90;;;;;;6253925;23;20084;-76
2021/08/06 03:22:26;;;;;;;5.93;2.33;;;15.50;92.60;;;;;;6251175;23;20024;-76
2021/08/06 03:24:53;;;;;;;3.60;1.83;;;15.50;92.40;;;;;;6256095;23;20079;-78
2021/08/06 03:27:21;;;;;;;3.85;1.80;;;15.50;92.40;;;;;;6254585;22;20212;-77
2021/08/06 03:29:51;;;;;;;5.95;3.25;;;15.60;92.60;;;;;;6279091;22;20020;-78
2021/08/06 03:32:19;;;;;;;6.47;3.17;;;15.60;92.30;;;;;;6253565;23;20051;-77
2021/08/06 03:34:46;;;;;;;9.10;4.20;;;15.60;92.60;;;;;;6255010;23;20031;-78
2021/08/06 03:37:15;;;;;;;7.10;3.78;;;15.60;92.40;;;;;;6256361;23;20016;-78
2021/08/06 03:39:42;;;;;;;7.97;3.60;;;15.60;92.50;;;;;;6254703;23;20020;-78
2021/08/06 03:42:10;;;;;;;8.27;3.50;;;15.60;92.50;;;;;;6254670;23;20034;-78
2021/08/06 03:44:37;;;;;;;5.70;3.38;;;15.60;92.50;;;;;;6253349;23;20039;-78
2021/08/06 03:47:06;;;;;;;6.35;3.05;;;15.50;92.40;;;;;;6252459;23;20019;-77
2021/08/06 03:49:34;;;;;;;7.30;2.92;;;15.60;92.50;;;;;;6252457;23;20075;-77
2021/08/06 03:52:02;;;;;;;5.38;3.17;;;15.60;92.30;;;;;;6250869;23;20373;-78
2021/08/06 03:54:30;;;;;;;5.30;2.90;;;15.60;92.10;;;;;;6249614;23;20028;-77
2021/08/06 03:56:58;;;;;;;5.15;2.63;;;15.60;92.20;;;;;;6248402;23;20086;-77
2021/08/06 03:59:25;;;;;;;5.93;2.72;;;15.70;92.30;;;;;;6252132;23;20043;-78
2021/08/06 04:01:53;;;;;;;8.50;3.10;;;15.70;92.40;;;;;;6246018;23;20035;-77
2021/08/06 04:04:21;;;;;;;6.57;2.83;;;15.80;92.10;;;;;;6275441;22;20016;-77
2021/08/06 04:06:49;;;;;;;6.72;2.50;;;15.90;92.10;;;;;;6249849;23;20070;-77
2021/08/06 04:09:17;;;;;;;8.88;2.80;;;16.00;91.60;;;;;;6249301;23;20350;-77
2021/08/06 04:11:46;;;;;;;11.02;3.22;;;15.90;91.50;;;;;;6249517;23;20212;-78
2021/08/06 04:14:14;;;;;;;6.15;3.15;;;16.00;91.50;;;;;;6250581;22;20300;-78
2021/08/06 04:16:41;;;;;;;10.95;3.72;;;16.00;91.50;;;;;;6249762;23;20035;-78
2021/08/06 04:19:09;;;;;;;9.48;3.45;;;16.10;91.30;;;;;;6250263;23;20026;-77
2021/08/06 04:21:36;;;;;;;7.78;3.03;;;16.00;91.10;;;;;;6253025;22;20012;-77
2021/08/06 04:24:04;;;;;;;5.82;2.45;;;16.10;91.20;;;;;;6252801;23;20020;-77
2021/08/06 04:26:31;;;;;;;5.90;2.40;;;16.30;90.90;;;;;;6251794;22;20047;-77
2021/08/06 04:28:59;;;;;;;4.28;2.05;;;16.30;90.50;;;;;;6247656;23;20255;-77
2021/08/06 04:31:27;;;;;;;5.07;2.15;;;16.40;89.90;;;;;;6247898;23;20016;-77
2021/08/06 04:33:54;;;;;;;4.78;2.33;;;16.40;89.60;;;;;;6250017;23;20027;-77
2021/08/06 04:36:22;;;;;;;4.85;2.67;;;16.50;89.10;;;;;;6250096;23;20020;-77
2021/08/06 04:38:49;;;;;;;6.10;2.88;;;16.50;88.90;;;;;;6250343;22;20078;-77
2021/08/06 04:41:16;;;;;;;5.80;2.53;;;16.40;88.90;;;;;;6251653;22;20024;-77
2021/08/06 04:43:43;;;;;;;3.67;2.15;;;16.30;89.10;;;;;;6252028;22;20130;-77
2021/08/06 04:46:13;;;;;;;4.22;2.28;;;16.30;89.20;;;;;;6250109;23;20067;-77
2021/08/06 04:48:41;;;;;;;4.15;2.38;;;16.20;89.10;;;;;;6250305;23;20047;-78
2021/08/06 04:51:08;;;;;;;5.75;2.63;;;16.20;89.20;;;;;;6251855;22;20020;-77
2021/08/06 04:53:35;;;;;;;5.88;2.10;;;16.20;89.20;;;;;;6249865;23;20335;-77
2021/08/06 04:56:04;;;;;;;3.45;1.77;;;16.20;89.40;;;;;;6250385;23;20031;-77
2021/08/06 04:58:31;;;;;;;8.68;2.45;;;16.30;89.20;;;;;;6248832;23;20354;-77
2021/08/06 05:00:59;;;;;;;3.53;1.80;;;16.20;89.10;;;;;;6244071;23;20335;-77
2021/08/06 05:03:28;;;;;;;5.63;2.20;;;16.20;89.10;;;;;;6250275;23;20016;-77
2021/08/06 05:05:56;;;;;;;5.97;2.03;;;16.10;89.30;;;;;;6250967;23;20032;-77
2021/08/06 05:08:23;;;;;;;3.83;1.75;;;16.10;89.70;;;;;;6250158;23;20089;-77
2021/08/06 05:10:51;;;;;;;4.95;2.10;;;16.20;89.80;;;;;;6249958;23;20087;-77
2021/08/06 05:13:20;;;;;;;3.95;2.13;;;16.30;89.70;;;;;;6249641;23;20019;-77
2021/08/06 05:15:47;;;;;;;2.65;1.60;;;16.30;89.60;;;;;;6248565;23;20050;-78
2021/08/06 05:18:14;;;;;;;3.00;1.52;;;16.20;89.50;;;;;;6250871;23;20020;-78
2021/08/06 05:20:43;;;;;;;3.22;1.80;;;16.20;89.40;;;;;;6251572;22;20020;-77
2021/08/06 05:23:11;;;;;;;3.92;2.13;;;16.30;89.70;;;;;;6251070;23;20111;-76
2021/08/06 05:25:39;;;;;;;3.53;1.77;;;16.40;90.10;;;;;;6248100;23;20028;-76
2021/08/06 05:28:09;;;;;;;6.95;2.10;;;16.40;89.90;;;;;;6248876;22;20016;-76
2021/08/06 05:30:38;;;;;;;3.65;1.60;;;16.50;89.80;;;;;;6243703;23;20083;-76
2021/08/06 05:33:05;;;;;;;6.65;1.98;;;16.50;90.00;;;;;;6249490;23;20016;-76
2021/08/06 05:35:33;;;;;;;5.72;1.63;;;16.60;90.20;;;;;;6246894;23;20078;-75
2021/08/06 05:38:04;;;;;;;4.65;2.15;;;16.60;89.90;;;;;;6247724;23;20352;-75
2021/08/06 05:40:32;;;;;;;4.18;1.55;;;16.60;89.50;;;;;;6247367;23;20200;-74
2021/08/06 05:43:01;;;;;;;3.35;1.27;;;16.60;89.40;;;;;;6247717;23;20028;-75
2021/08/06 05:45:31;;;;;;;3.38;1.55;;;16.60;89.70;;;;;;6246516;23;20275;-75
2021/08/06 05:48:00;;;;;;;7.50;1.77;;;16.60;89.20;;;;;;6248575;23;20035;-74
2021/08/06 05:50:39;;;;;;;7.70;1.80;;;16.60;89.40;;;;;;6246887;23;20327;-74
2021/08/06 05:53:08;;;;;;;2.40;1.20;;;16.40;89.70;;;;;;6272949;22;20028;-75
2021/08/06 05:55:36;;;;;;;3.08;1.60;;;16.40;90.00;;;;;;6247721;23;20055;-75
2021/08/06 05:58:07;;;;;;;2.40;1.40;;;16.40;89.80;;;;;;6247360;23;20223;-75
2021/08/06 06:00:34;;;;;;;6.20;1.70;;;16.40;89.70;;;;;;6242339;23;20488;-75
2021/08/06 06:03:22;;;;;;;4.13;1.50;;;16.40;90.40;;;;;;6249105;23;20342;-75
2021/08/06 06:06:00;;;;;;;4.97;1.40;;;16.40;90.90;;;;;;6249394;23;20035;-76
2021/08/06 06:08:34;;;;;;;4.38;1.70;;;16.40;90.30;;;;;;6248779;23;20032;-75
2021/08/06 06:11:02;;;;;;;4.80;1.57;;;16.40;90.40;;;;;;6248690;23;20020;-76
2021/08/06 06:13:31;;;;;;;3.15;1.60;;;16.40;90.70;;;;;;6249009;23;20208;-75
2021/08/06 06:15:59;;;;;;;5.78;2.00;;;16.60;90.60;;;;;;6250268;23;20012;-76
2021/08/06 06:18:27;;;;;;;3.47;1.80;;;16.70;90.10;;;;;;6248950;23;20505;-75
2021/08/06 06:20:54;;;;;;;2.38;1.45;;;16.70;89.80;;;;;;6249412;23;20255;-76
2021/08/06 06:23:21;;;;;;;3.95;1.90;;;16.80;89.60;;;;;;6249247;23;20028;-76
2021/08/06 06:25:51;;;;;;;3.55;1.58;;;16.80;89.30;;;;;;6248808;23;20220;-76
2021/08/06 06:28:18;;;;;;;4.22;1.73;;;16.90;89.70;;;;;;6251564;23;20039;-76
2021/08/06 06:30:51;;;;;;;3.50;2.10;;;16.90;89.40;;;;;;6249003;23;20031;-76
2021/08/06 06:33:19;;;;;;;4.68;1.42;;;16.90;89.50;;;;;;6244321;23;20442;-76
2021/08/06 06:35:49;;;;;;;6.03;1.67;;;16.80;89.30;;;;;;6248866;23;20020;-76
2021/08/06 06:38:17;;;;;;;6.45;1.67;;;16.90;89.50;;;;;;6249453;23;20051;-75
2021/08/06 06:40:45;;;;;;;9.88;2.20;;;16.90;89.30;;;;;;6248542;23;20091;-77
2021/08/06 06:43:25;;;;;;;4.43;1.87;;;17.00;89.50;;;;;;6249431;23;20335;-76
2021/08/06 06:45:52;;;;;;;6.47;1.95;;;17.10;89.40;;;;;;6250432;22;20024;-77
2021/08/06 06:48:24;;;;;;;5.40;2.45;;;17.20;89.30;;;;;;6250815;22;20320;-75
2021/08/06 06:50:52;;;;;;;3.83;1.80;;;17.30;88.60;;;;;;6248756;23;20327;-75
2021/08/06 06:53:22;;;;;;;3.20;1.60;;;17.60;88.40;;;;;;6249134;23;20111;-75
2021/08/06 06:55:51;;;;;;;4.78;1.45;;;17.80;88.00;;;;;;6248015;23;20277;-75
2021/08/06 06:58:19;;;;;;;3.50;1.48;;;18.00;87.20;;;;;;6249506;23;20036;-76
2021/08/06 07:00:49;;;;;;;3.38;1.50;;;18.30;86.70;;;;;;6244615;23;20020;-76
2021/08/06 07:03:16;;;;;;;5.95;1.85;;;18.30;86.70;;;;;;6251380;23;20032;-77
2021/08/06 07:05:43;;;;;;;5.68;1.73;;;18.30;85.80;;;;;;6248667;23;20028;-76
2021/08/06 07:08:11;;;;;;;4.10;1.52;;;18.30;85.70;;;;;;6248697;23;20019;-76
2021/08/06 07:10:39;;;;;;;2.97;1.60;;;18.50;86.40;;;;;;6250194;23;20044;-78
2021/08/06 07:13:07;;;;;;;5.40;1.63;;;18.60;85.70;;;;;;6247996;23;20232;-75
2021/08/06 07:15:34;;;;;;;3.85;1.20;;;18.60;85.50;;;;;;6247804;23;20032;-75
2021/08/06 07:18:03;;;;;;;2.60;1.42;;;18.50;85.50;;;;;;6249973;23;20012;-77
2021/08/06 07:20:30;;;;;;;4.35;1.42;;;18.20;86.00;;;;;;6250938;22;20031;-75
2021/08/06 07:22:59;;;;;;;3.20;1.10;;;18.10;86.20;;;;;;6249029;23;20024;-75
2021/08/06 07:25:27;;;;;;;6.68;1.27;;;18.10;86.40;;;;;;6249506;23;20020;-75
2021/08/06 07:27:55;;;;;;;2.20;1.40;;;18.10;87.40;;;;;;6248029;22;20312;-77
2021/08/06 07:30:23;;;;;;;4.13;1.20;;;18.20;87.10;;;;;;6276238;22;20019;-75
2021/08/06 07:32:50;;;;;;;2.22;1.15;;;18.30;86.00;;;;;;6249562;23;20361;-77
2021/08/06 07:35:21;;;;;;;2.70;1.20;;;18.50;85.80;;;;;;6247938;23;20024;-77
2021/08/06 07:37:48;;;;;;;3.58;0.80;;;18.60;85.90;;;;;;6249468;23;20039;-77
2021/08/06 07:40:18;;;;;;;1.52;0.82;;;18.70;84.70;;;;;;6248646;23;20324;-78
2021/08/06 07:42:46;;;;;;;1.25;0.90;;;18.80;85.20;;;;;;6250201;23;20015;-77
2021/08/06 07:45:14;;;;;;;2.35;1.08;;;18.80;84.90;;;;;;6250133;23;20346;-77
2021/08/06 07:47:42;;;;;;;2.17;1.10;;;19.00;84.60;;;;;;6251213;23;20020;-77
2021/08/06 07:50:11;;;;;;;2.95;0.75;;;19.20;84.30;;;;;;6252038;22;20246;-77
2021/08/06 07:52:41;;;;;;;1.33;0.70;;;19.40;84.20;;;;;;6252012;22;20012;-77
2021/08/06 07:55:10;;;;;;;2.55;0.70;;;19.30;83.30;;;;;;6249546;23;20035;-78
2021/08/06 07:57:38;;;;;;;1.40;0.60;;;19.30;83.30;;;;;;6250835;23;20046;-77
2021/08/06 08:00:07;;;;;;;2.50;0.75;;;19.20;83.30;;;;;;6248307;23;20027;-76
2021/08/06 08:02:55;;;;;;;5.65;1.40;;;19.10;83.90;;;;;;6251888;23;20062;-78
2021/08/06 08:05:26;;;;;;;1.77;0.80;;;19.10;83.80;;;;;;6249090;23;20028;-78
2021/08/06 08:08:03;;;;;;;1.90;0.73;;;19.30;84.00;;;;;;6249666;23;20042;-76
2021/08/06 08:10:32;;;;;;;1.60;0.70;;;19.20;83.20;;;;;;6248846;23;20028;-78
2021/08/06 08:12:59;;;;;;;2.00;0.85;;;19.10;83.20;;;;;;6249081;23;20079;-78
2021/08/06 08:15:27;;;;;;;1.73;0.90;;;19.00;84.10;;;;;;6248209;23;20062;-79
2021/08/06 08:17:55;;;;;;;1.80;1.15;;;19.10;84.00;;;;;;6249810;23;20035;-76
2021/08/06 08:20:22;;;;;;;3.53;0.88;;;19.10;83.70;;;;;;6250162;23;20055;-79
2021/08/06 08:22:50;;;;;;;2.00;0.80;;;19.00;83.20;;;;;;6250287;23;20024;-77
2021/08/06 08:25:19;;;;;;;2.17;0.90;;;18.90;83.40;;;;;;6251224;23;20024;-77
2021/08/06 08:27:46;;;;;;;1.70;0.77;;;18.80;83.70;;;;;;6249550;23;20275;-77
2021/08/06 08:30:14;;;;;;;1.27;0.70;;;19.00;84.00;;;;;;6249313;23;20027;-77
2021/08/06 08:32:43;;;;;;;2.53;0.82;;;19.20;82.60;;;;;;6249412;23;20016;-77
2021/08/06 08:35:11;;;;;;;1.80;0.80;;;19.40;83.40;;;;;;6252560;23;20058;-77
2021/08/06 08:37:38;;;;;;;1.83;0.85;;;19.40;82.30;;;;;;6247844;23;20034;-77
2021/08/06 08:40:08;;;;;;;1.88;0.70;;;19.50;82.10;;;;;;6275596;22;20028;-77
2021/08/06 08:42:39;;;;;;;3.53;1.45;;;19.60;82.20;;;;;;6251117;23;20024;-77
2021/08/06 08:45:09;;;;;;;1.75;0.90;;;19.60;81.40;;;;;;6249641;23;20027;-77
2021/08/06 08:47:43;;;;;;;3.40;1.53;;;19.90;81.20;;;;;;6250053;23;20020;-77
2021/08/06 08:50:14;;;;;;;1.45;0.85;;;19.90;81.60;;;;;;6250469;23;20633;-76
2021/08/06 08:52:42;;;;;;;2.22;0.80;;;20.00;80.00;;;;;;6248716;23;20034;-77
2021/08/06 08:55:11;;;;;;;2.38;0.98;;;19.90;80.00;;;;;;6250561;23;20040;-77
2021/08/06 08:57:40;;;;;;;2.50;0.93;;;19.60;80.50;;;;;;6249944;23;20020;-77
2021/08/06 09:00:13;;;;;;;3.53;1.07;;;19.60;81.90;;;;;;6243669;23;20354;-78
2021/08/06 09:02:41;;;;;;;1.25;0.75;;;19.70;81.30;;;;;;6253067;23;20048;-78
2021/08/06 09:05:11;;;;;;;2.05;0.98;;;20.10;80.40;;;;;;6252821;22;20039;-79
2021/08/06 09:07:40;;;;;;;3.95;0.85;;;20.00;80.80;;;;;;6251053;23;20020;-78
2021/08/06 09:10:43;;;;;;;2.83;0.70;;;20.00;80.40;;;;;;6130070;23;20133;-78
2021/08/06 09:13:12;;;;;;;1.98;0.90;;;19.60;81.20;;;;;;6228026;22;20070;-78
2021/08/06 09:15:49;;;;;;;0.90;0.50;;;19.50;81.30;;;;;;6278212;22;20018;-78
2021/08/06 09:18:36;;;;;;;2.78;0.93;;;19.30;81.70;;;;;;6253719;23;20343;-78
2021/08/06 09:21:06;;;;;;;2.13;0.77;;;19.30;81.20;;;;;;6252143;22;20075;-78
2021/08/06 09:23:42;;;;;;;2.22;0.70;;;19.30;81.80;;;;;;6253335;23;20035;-78
2021/08/06 09:26:28;;;;;;;1.27;0.80;;;19.40;82.10;;;;;;6255619;22;20316;-78
2021/08/06 09:29:04;;;;;;;2.28;0.68;;;19.40;81.70;;;;;;6251712;23;20193;-78
2021/08/06 09:31:32;;;;;;;1.42;0.70;;;19.70;82.50;;;;;;6255376;23;20335;-78
2021/08/06 09:34:14;;;;;;;2.00;0.77;;;20.00;81.50;;;;;;6257665;23;20016;-79
2021/08/06 09:36:57;;;;;;;1.15;0.55;;;20.20;80.50;;;;;;6254806;22;20074;-78
2021/08/06 09:39:26;;;;;;;3.38;0.70;;;20.60;78.90;;;;;;6251146;22;20032;-78
2021/08/06 09:41:54;;;;;;;2.55;0.70;;;21.00;77.40;;;;;;6254008;22;20224;-78
2021/08/06 09:44:27;;;;;;;2.22;0.52;;;20.90;77.00;;;;;;6254080;22;20028;-78
2021/08/06 09:46:57;;;;;;;6.75;0.85;;;21.10;77.10;;;;;;6255771;23;20028;-77
2021/08/06 09:49:26;;;;;;;0.85;0.70;;;21.20;76.10;;;;;;6251604;22;20322;-77
2021/08/06 09:51:53;;;;;;;3.08;0.93;;;21.30;76.00;;;;;;6251599;22;20071;-77
2021/08/06 09:54:23;;;;;;;1.10;0.50;;;21.20;76.20;;;;;;6249559;23;20058;-77
2021/08/06 09:57:01;;;;;;;;;;;21.00;77.10;;;;;;6250638;23;20020;-78
2021/08/06 09:59:33;;;;;;;2.63;0.60;;;21.10;76.40;;;;;;6251288;23;19923;-77
2021/08/06 10:02:19;;;;;;;0.90;0.60;;;21.10;76.20;;;;;;6246494;22;20366;-77
2021/08/06 10:04:58;;;;;;;1.55;0.65;;;20.90;76.40;;;;;;6250764;23;20026;-78
2021/08/06 10:07:26;;;;;;;1.60;0.70;;;21.00;75.40;;;;;;6252271;23;20019;-78
2021/08/06 10:09:53;;;;;;;0.75;0.50;;;20.90;77.00;;;;;;6250450;23;20297;-78
2021/08/06 10:12:21;;;;;;;0.57;0.45;;;20.60;76.30;;;;;;6249246;23;20025;-76
2021/08/06 10:14:50;;;;;;;1.10;0.68;;;20.60;77.20;;;;;;6250372;23;20028;-78
2021/08/06 10:17:18;;;;;;;1.40;0.60;;;20.90;76.60;;;;;;6252423;22;20070;-77
2021/08/06 10:19:46;;;;;;;1.27;0.60;;;21.30;75.30;;;;;;6249609;23;20028;-78
2021/08/06 10:22:14;;;;;;;1.92;0.80;;;21.20;74.30;;;;;;6251103;23;20189;-77
2021/08/06 10:24:45;;;;;;;1.88;0.90;;;21.30;73.80;;;;;;6250082;22;20016;-77
2021/08/06 10:27:13;;;;;;;3.30;0.70;;;21.20;74.00;;;;;;6274402;22;20028;-78
2021/08/06 10:29:58;;;;;;;1.20;0.63;;;21.60;73.40;;;;;;6250729;22;20109;-77
2021/08/06 10:32:26;;;;;;;2.10;0.80;;;22.90;71.70;;;;;;6247643;23;20027;-77
2021/08/06 10:35:19;;;;;;;2.40;0.63;;;22.50;69.70;;;;;;6251268;22;20034;-78
2021/08/06 10:37:59;;;;;;;1.02;0.60;;;23.50;68.40;;;;;;6253019;23;20071;-76
2021/08/06 10:41:12;;;;;;;1.05;0.60;;;23.10;69.10;;;;;;6251802;23;20091;-78
2021/08/06 10:44:07;;;;;;;1.83;0.70;;;22.10;70.10;;;;;;6253356;23;20084;-78
2021/08/06 10:47:01;;;;;;;1.27;0.50;;;22.10;71.20;;;;;;6225708;23;20383;-77
2021/08/06 10:49:31;;;;;;;1.10;0.70;;;22.00;70.30;;;;;;6251271;23;20023;-75
2021/08/06 10:52:19;;;;;;;1.13;0.50;;;21.80;70.30;;;;;;6254105;22;20402;-77
2021/08/06 10:54:48;;;;;;;1.40;0.60;;;21.80;70.40;;;;;;6254471;23;20334;-77
2021/08/06 10:57:30;;;;;;;2.30;0.63;;;23.50;63.50;;;;;;6250990;22;20024;-77
2021/08/06 10:59:59;;;;;;;3.55;0.65;;;24.30;62.70;;;;;;6255121;22;20094;-77
2021/08/06 11:02:46;;;;;;;1.50;0.70;;;24.00;62.70;;;;;;6250491;23;20005;-77
2021/08/06 11:05:44;;;;;;;7.10;1.98;;;24.50;61.20;;;;;;6254649;22;20016;-77
2021/08/06 11:08:55;;;;;;;2.33;0.60;;;23.70;62.80;;;;;;6256770;22;20039;-77
2021/08/06 11:11:45;;;;;;;0.90;0.50;;;22.90;66.50;;;;;;6254866;23;20028;-77
2021/08/06 11:14:17;;;;;;;1.05;0.60;;;24.20;63.10;;;;;;6251747;22;20255;-76
2021/08/06 11:17:04;;;;;;;1.92;0.90;;;25.00;59.80;;;;;;6250109;23;20028;-77
2021/08/06 11:19:35;;;;;;;1.33;0.50;;;23.70;63.20;;;;;;6254675;23;20067;-77
2021/08/06 11:22:06;;;;;;;0.80;0.52;;;23.40;65.60;;;;;;6278443;22;20308;-78
2021/08/06 11:24:39;;;;;;;1.42;0.70;;;23.10;65.50;;;;;;6254212;23;20204;-77
2021/08/06 11:27:06;;;;;;;3.72;1.00;;;24.10;62.50;;;;;;6250925;22;20308;-77
2021/08/06 11:29:34;;;;;;;2.42;0.60;;;24.20;62.70;;;;;;6252771;22;20281;-76
2021/08/06 11:32:04;;;;;;;3.15;1.23;;;25.60;59.10;;;;;;6253736;23;20127;-76
2021/08/06 11:34:52;;;;;;;1.20;0.63;;;25.00;59.70;;;;;;6251619;23;20028;-77
2021/08/06 11:37:20;;;;;;;2.92;0.68;;;23.80;62.60;;;;;;6251963;22;20208;-76
2021/08/06 11:40:09;;;;;;;2.60;0.77;;;23.30;65.40;;;;;;6252800;23;20023;-77
2021/08/06 11:42:37;;;;;;;0.88;0.50;;;23.40;65.80;;;;;;6252284;23;20028;-77
2021/08/06 11:45:06;;;;;;;1.20;0.70;;;25.70;59.40;;;;;;6251520;23;20373;-76
2021/08/06 11:47:39;;;;;;;2.92;0.93;;;25.10;59.60;;;;;;6250792;23;20020;-77
2021/08/06 11:50:12;;;;;;;3.55;1.15;;;24.00;63.10;;;;;;6250281;23;20365;-76
2021/08/06 11:52:41;;;;;;;4.18;1.02;;;23.20;65.00;;;;;;6252552;22;20020;-77
2021/08/06 11:55:11;;;;;;;1.98;0.80;;;23.30;66.60;;;;;;6253979;22;20378;-76
2021/08/06 11:57:51;;;;;;;1.30;0.73;;;26.30;58.10;;;;;;6251790;23;20086;-78
2021/08/06 12:00:24;;;;;;;2.13;0.70;;;26.30;56.10;;;;;;6222780;23;20132;-77
2021/08/06 12:03:09;;;;;;;1.80;0.60;;;25.40;59.50;;;;;;6249131;23;20082;-80
2021/08/06 12:05:40;;;;;;;1.75;0.80;;;27.10;55.10;;;;;;6252227;23;20272;-78
2021/08/06 12:08:16;;;;;;;1.85;0.80;;;25.30;58.60;;;;;;6248625;23;20031;-78
2021/08/06 12:10:44;;;;;;;3.20;1.00;;;26.80;55.30;;;;;;6251303;22;20024;-78
2021/08/06 12:13:13;;;;;;;1.88;0.73;;;26.50;54.70;;;;;;6250701;22;20004;-77
2021/08/06 12:15:42;;;;;;;1.95;0.85;;;27.90;51.20;;;;;;6252027;22;20062;-78
2021/08/06 12:18:14;;;;;;;1.80;0.75;;;26.80;53.20;;;;;;6252880;22;20047;-77
2021/08/06 12:20:49;;;;;;;1.17;0.60;;;27.40;51.30;;;;;;6252354;23;20264;-76
2021/08/06 12:23:19;;;;;;;2.15;0.90;;;27.80;48.90;;;;;;6249976;23;20023;-75
2021/08/06 12:26:07;;;;;;;2.78;0.80;;;26.30;52.00;;;;;;6250542;23;20043;-76
2021/08/06 12:28:36;;;;;;;2.58;0.75;;;26.70;52.40;;;;;;6250361;22;20024;-76
2021/08/06 12:31:21;;;;;;;0.95;0.60;;;25.10;55.80;;;;;;6256019;22;20292;-77
2021/08/06 12:34:05;;;;;;;1.50;0.52;;;25.00;57.30;;;;;;6253223;22;20020;-77
2021/08/06 12:36:37;;;;;;;3.30;0.50;;;26.40;53.00;;;;;;6256131;23;20024;-77
2021/08/06 12:39:14;;;;;;;0.80;0.43;;;26.90;48.80;;;;;;6255478;22;20255;-77
2021/08/06 12:41:52;;;;;;;1.45;0.40;;;27.70;48.10;;;;;;6255503;22;20058;-77
2021/08/06 12:44:28;;;;;;;3.20;0.40;;;28.50;45.20;;;;;;6255251;23;20020;-78
2021/08/06 12:47:07;;;;;;;0.40;0.25;;;29.20;42.90;;;;;;6254750;22;20024;-78
2021/08/06 12:49:37;;;;;;;0.88;0.25;;;28.70;41.80;;;;;;6254636;23;20022;-78
2021/08/06 12:52:13;;;;;;;0.75;0.45;;;26.80;46.80;;;;;;6254537;22;20047;-80
2021/08/06 12:54:44;;;;;;;2.08;0.40;;;28.40;44.40;;;;;;6258169;23;20058;-78
2021/08/06 12:57:13;;;;;;;1.10;0.40;;;28.50;45.00;;;;;;6259792;22;20074;-78
2021/08/06 12:59:44;;;;;;;0.75;0.35;;;28.10;44.90;;;;;;6257082;23;20016;-78
2021/08/06 13:02:20;;;;;;;1.30;0.60;;;28.30;43.40;;;;;;6251320;23;20047;-78
2021/08/06 13:04:49;;;;;;;1.42;0.40;;;28.50;43.60;;;;;;6252003;23;20024;-79
2021/08/06 13:07:33;;;;;;;0.98;0.32;;;28.60;42.70;;;;;;6253898;22;20020;-78
2021/08/06 13:10:01;;;;;;;0.82;0.47;;;27.60;47.20;;;;;;6251957;23;20032;-78